Time;durP1;ratioP1;P1;durP2;ratioP2;P2;SDS_P1;SDS_P2;PMS_P1;PMS_P2;Temp;Humidity;BMP_temperature;BMP_pressure;BME280_temperature;BME280_humidity;BME280_pressure;Samples;Min_cycle;Max_cycle;Signal;HPM_P1;HPM_P2
2022/04/23 00:00:40;;;;;;;17.63;12.33;;;;;;;2.86;100.00;100544.25;5018304;28;20046;-79
2022/04/23 00:03:07;;;;;;;19.83;13.17;;;;;;;2.79;100.00;100545.94;5002702;28;20045;-82
2022/04/23 00:05:36;;;;;;;19.20;13.33;;;;;;;2.69;100.00;100545.00;5027101;28;20050;-79
2022/04/23 00:08:04;;;;;;;20.07;13.00;;;;;;;2.58;100.00;100546.59;5017298;28;20041;-80
2022/04/23 00:10:31;;;;;;;20.27;13.00;;;;;;;2.51;100.00;100544.78;5000537;28;20033;-81
2022/04/23 00:12:59;;;;;;;19.83;13.30;;;;;;;2.44;100.00;100545.59;5005194;28;20046;-80
2022/04/23 00:15:27;;;;;;;18.93;12.30;;;;;;;2.37;100.00;100552.47;5006480;28;20052;-79
2022/04/23 00:17:54;;;;;;;19.93;12.77;;;;;;;2.34;100.00;100543.72;5004050;28;20053;-79
2022/04/23 00:20:23;;;;;;;21.37;14.47;;;;;;;2.36;100.00;100553.34;5011035;28;20033;-80
2022/04/23 00:22:50;;;;;;;19.83;13.07;;;;;;;2.42;100.00;100542.09;5013279;28;20150;-81
2022/04/23 00:25:16;;;;;;;18.53;13.17;;;;;;;2.41;100.00;100546.44;4998303;28;20034;-79
2022/04/23 00:27:49;;;;;;;17.40;11.70;;;;;;;2.25;100.00;100542.78;5028981;28;20041;-81
2022/04/23 00:30:16;;;;;;;18.97;12.23;;;;;;;2.15;100.00;100547.88;5012935;28;20038;-80
2022/04/23 00:32:43;;;;;;;17.57;12.60;;;;;;;2.07;100.00;100545.16;5013428;28;20053;-80
2022/04/23 00:35:16;;;;;;;19.23;12.07;;;;;;;2.16;100.00;100554.81;5012570;28;20038;-81
2022/04/23 00:37:46;;;;;;;19.67;13.07;;;;;;;2.11;100.00;100546.09;5026237;28;20044;-81
2022/04/23 00:40:18;;;;;;;18.83;12.03;;;;;;;2.11;100.00;100546.97;5018265;28;20042;-79
2022/04/23 00:42:55;;;;;;;17.70;12.07;;;;;;;2.11;100.00;100541.75;4995373;28;20462;-79
2022/04/23 00:45:23;;;;;;;20.60;13.80;;;;;;;2.06;100.00;100547.75;4993691;28;20059;-82
2022/04/23 00:47:53;;;;;;;23.07;13.57;;;;;;;1.96;100.00;100541.56;4998173;28;20132;-82
2022/04/23 00:50:23;;;;;;;18.60;12.43;;;;;;;1.88;100.00;100541.47;4992795;28;20034;-82
2022/04/23 00:52:53;;;;;;;18.33;13.03;;;;;;;1.80;100.00;100544.84;5011715;28;20064;-82
2022/04/23 00:55:23;;;;;;;21.03;13.37;;;;;;;1.72;100.00;100547.31;5024128;28;20068;-81
2022/04/23 00:57:51;;;;;;;18.77;12.30;;;;;;;1.65;100.00;100541.16;5014282;28;20049;-81
2022/04/23 01:00:18;;;;;;;18.00;12.17;;;;;;;1.59;100.00;100543.66;5006686;28;20037;-81
2022/04/23 01:02:45;;;;;;;17.70;12.40;;;;;;;1.55;100.00;100538.41;5020381;28;20507;-82
2022/04/23 01:05:12;;;;;;;17.87;11.93;;;;;;;1.52;100.00;100534.06;5014402;28;20044;-81
2022/04/23 01:07:42;;;;;;;18.80;12.47;;;;;;;1.47;100.00;100542.63;5018237;28;20412;-81
2022/04/23 01:10:10;;;;;;;20.27;12.77;;;;;;;1.43;100.00;100533.91;5014967;28;20507;-82
2022/04/23 01:12:37;;;;;;;18.03;12.40;;;;;;;1.41;100.00;100535.59;4994542;28;20055;-81
2022/04/23 01:15:06;;;;;;;18.60;11.90;;;;;;;1.41;100.00;100544.28;5001681;28;20045;-80
2022/04/23 01:17:33;;;;;;;20.13;12.40;;;;;;;1.48;100.00;100537.44;5018172;28;20053;-81
2022/04/23 01:20:11;;;;;;;20.23;12.80;;;;;;;1.51;100.00;100544.41;5009440;28;20095;-82
2022/04/23 01:22:40;;;;;;;19.20;11.90;;;;;;;1.47;100.00;100540.91;5014198;28;20274;-81
2022/04/23 01:25:10;;;;;;;16.77;11.70;;;;;;;1.40;100.00;100539.06;5010408;28;20045;-80
2022/04/23 01:27:38;;;;;;;18.30;12.47;;;;;;;1.33;100.00;100547.63;5010349;28;20069;-80
2022/04/23 01:30:07;;;;;;;21.10;13.80;;;;;;;1.33;100.00;100540.69;5009062;28;20041;-80
2022/04/23 01:32:34;;;;;;;19.43;12.83;;;;;;;1.32;100.00;100535.47;5008672;28;20037;-80
2022/04/23 01:35:01;;;;;;;19.57;13.03;;;;;;;1.22;100.00;100537.06;4988944;28;20522;-81
2022/04/23 01:37:28;;;;;;;20.57;13.27;;;;;;;1.29;100.00;100543.25;5014247;28;20514;-82
2022/04/23 01:39:54;;;;;;;21.90;14.13;;;;;;;1.19;100.00;100544.84;4994501;28;20041;-81
2022/04/23 01:42:21;;;;;;;20.77;14.27;;;;;;;1.31;100.00;100542.41;5007659;28;20041;-79
2022/04/23 01:44:49;;;;;;;19.03;12.40;;;;;;;1.27;100.00;100547.56;5008522;28;20095;-81
2022/04/23 01:47:16;;;;;;;19.90;12.90;;;;;;;1.28;100.00;100534.56;5026794;28;20045;-81
2022/04/23 01:49:46;;;;;;;19.40;13.00;;;;;;;1.41;100.00;100541.69;4994731;28;20457;-79
2022/04/23 01:52:13;;;;;;;20.90;13.23;;;;;;;1.18;100.00;100543.09;5008892;28;20442;-79
2022/04/23 01:54:40;;;;;;;21.03;14.07;;;;;;;1.18;100.00;100543.09;5011446;28;20049;-82
2022/04/23 01:57:06;;;;;;;19.43;13.07;;;;;;;1.06;100.00;100538.53;5004048;28;20038;-80
2022/04/23 01:59:33;;;;;;;18.40;12.10;;;;;;;0.96;100.00;100544.47;4994047;28;20087;-80
2022/04/23 02:02:00;;;;;;;21.60;14.93;;;;;;;1.04;100.00;100545.47;5003871;28;20085;-81
2022/04/23 02:04:27;;;;;;;19.80;12.97;;;;;;;0.91;100.00;100547.81;5013695;28;20104;-82
2022/04/23 02:06:54;;;;;;;18.87;12.73;;;;;;;0.87;100.00;100549.50;5012509;28;20065;-80
2022/04/23 02:09:20;;;;;;;20.40;13.00;;;;;;;0.82;100.00;100554.63;5010807;28;20052;-81
2022/04/23 02:11:47;;;;;;;17.57;12.50;;;;;;;0.85;100.00;100543.41;5010701;28;20041;-82
2022/04/23 02:14:14;;;;;;;20.87;13.20;;;;;;;0.87;100.00;100553.84;4988797;28;20048;-81
2022/04/23 02:16:40;;;;;;;19.57;12.53;;;;;;;0.83;100.00;100548.56;4997426;28;20046;-82
2022/04/23 02:19:07;;;;;;;19.40;11.40;;;;;;;0.73;100.00;100554.47;5016708;28;20117;-79
2022/04/23 02:21:34;;;;;;;20.90;13.20;;;;;;;0.84;100.00;100557.25;5010181;28;20076;-82
2022/04/23 02:24:04;;;;;;;19.73;12.73;;;;;;;0.78;100.00;100557.16;5008152;28;20446;-79
2022/04/23 02:26:30;;;;;;;18.07;12.07;;;;;;;0.72;100.00;100554.44;5024858;28;20056;-79
2022/04/23 02:28:57;;;;;;;20.10;12.10;;;;;;;0.82;100.00;100549.41;5022554;28;20041;-79
2022/04/23 02:31:24;;;;;;;20.87;12.30;;;;;;;0.68;100.00;100556.13;5011267;28;20038;-78
2022/04/23 02:33:51;;;;;;;19.50;13.60;;;;;;;0.76;100.00;100553.66;5015045;28;20069;-80
2022/04/23 02:36:17;;;;;;;21.13;13.23;;;;;;;0.75;100.00;100554.47;5013471;28;20536;-82
2022/04/23 02:38:44;;;;;;;21.50;13.40;;;;;;;0.76;100.00;100557.13;5025016;28;20053;-81
2022/04/23 02:41:11;;;;;;;19.43;13.47;;;;;;;0.68;100.00;100555.25;5012049;28;20037;-80
2022/04/23 02:43:41;;;;;;;20.57;13.57;;;;;;;0.69;100.00;100562.19;5001781;28;20053;-81
2022/04/23 02:46:08;;;;;;;21.37;13.43;;;;;;;0.67;100.00;100556.06;5007865;28;20057;-81
2022/04/23 02:48:38;;;;;;;21.97;13.97;;;;;;;0.63;100.00;100557.75;4995876;28;20049;-80
2022/04/23 02:51:04;;;;;;;22.57;14.13;;;;;;;0.62;100.00;100557.72;5002588;28;20033;-81
2022/04/23 02:53:31;;;;;;;20.37;13.90;;;;;;;0.61;100.00;100554.25;5013998;28;20081;-80
2022/04/23 02:56:02;;;;;;;20.43;13.93;;;;;;;0.59;100.00;100557.66;5035792;28;20061;-80
2022/04/23 02:58:29;;;;;;;19.83;12.57;;;;;;;0.54;100.00;100558.47;5012752;28;20045;-79
2022/04/23 03:00:55;;;;;;;20.93;13.33;;;;;;;0.55;100.00;100549.81;5027400;28;20385;-80
2022/04/23 03:03:22;;;;;;;22.73;13.73;;;;;;;0.56;100.00;100554.16;4997361;28;20442;-80
2022/04/23 03:05:50;;;;;;;23.37;13.47;;;;;;;0.62;100.00;100560.34;5015275;28;20057;-80
2022/04/23 03:08:17;;;;;;;24.43;13.87;;;;;;;0.70;100.00;100567.41;4993851;28;20103;-80
2022/04/23 03:10:44;;;;;;;20.73;13.60;;;;;;;0.77;100.00;100558.00;5000366;28;20041;-79
2022/04/23 03:13:10;;;;;;;20.23;13.30;;;;;;;0.66;100.00;100562.13;5027812;28;20061;-80
2022/04/23 03:15:37;;;;;;;22.63;14.33;;;;;;;0.64;100.00;100558.63;5009766;28;20081;-81
2022/04/23 03:18:11;;;;;;;22.00;14.37;;;;;;;0.62;100.00;100560.34;5011078;28;20132;-80
2022/04/23 03:20:38;;;;;;;21.20;14.23;;;;;;;0.59;100.00;100563.75;5013854;28;20137;-81
2022/04/23 03:23:05;;;;;;;21.93;13.67;;;;;;;0.52;100.00;100560.16;4997159;28;20499;-80
2022/04/23 03:25:32;;;;;;;21.70;14.20;;;;;;;0.43;100.00;100562.59;5013166;28;20064;-80
2022/04/23 03:28:00;;;;;;;20.97;13.10;;;;;;;0.39;100.00;100557.31;4997288;28;20057;-80
2022/04/23 03:30:27;;;;;;;21.80;13.87;;;;;;;0.30;100.00;100555.41;5004691;28;20385;-79
2022/04/23 03:32:54;;;;;;;22.53;13.33;;;;;;;0.25;100.00;100557.94;5028192;28;20044;-79
2022/04/23 03:35:21;;;;;;;21.77;12.97;;;;;;;0.23;100.00;100558.72;5027135;28;20029;-79
2022/04/23 03:37:51;;;;;;;20.57;13.03;;;;;;;0.18;100.00;100563.84;5000839;28;20298;-81
2022/04/23 03:40:23;;;;;;;19.10;13.17;;;;;;;0.16;100.00;100562.03;5018729;28;20042;-78
2022/04/23 03:42:49;;;;;;;18.23;12.47;;;;;;;0.17;100.00;100558.59;5010843;28;20041;-81
2022/04/23 03:45:18;;;;;;;23.00;13.73;;;;;;;0.15;100.00;100563.75;4995732;28;20038;-80
2022/04/23 03:47:46;;;;;;;19.77;12.63;;;;;;;0.10;100.00;100559.34;5017121;28;20057;-80
2022/04/23 03:50:13;;;;;;;22.23;14.07;;;;;;;0.19;100.00;100564.72;5030794;28;20071;-78
2022/04/23 03:52:40;;;;;;;20.10;13.33;;;;;;;0.15;100.00;100560.28;4998976;28;20045;-79
2022/04/23 03:55:07;;;;;;;23.73;13.97;;;;;;;0.20;100.00;100566.47;5013777;28;20037;-78
2022/04/23 03:58:03;;;;;;;22.10;13.63;;;;;;;0.24;100.00;100563.06;5014670;28;20131;-79
2022/04/23 04:00:31;;;;;;;24.87;14.80;;;;;;;0.27;100.00;100560.56;4998796;28;20045;-79
2022/04/23 04:02:57;;;;;;;25.33;14.93;;;;;;;0.29;100.00;100574.44;5001414;28;20049;-80
2022/04/23 04:05:25;;;;;;;23.10;14.57;;;;;;;0.26;100.00;100569.19;5017409;28;20041;-79
2022/04/23 04:07:54;;;;;;;22.17;13.37;;;;;;;0.27;100.00;100566.63;5010767;28;20045;-80
2022/04/23 04:10:22;;;;;;;21.03;13.13;;;;;;;0.23;100.00;100571.72;5024404;28;20053;-78
2022/04/23 04:12:50;;;;;;;24.10;14.40;;;;;;;0.30;100.00;100565.78;5017188;28;20515;-79
2022/04/23 04:15:17;;;;;;;21.83;13.53;;;;;;;0.25;100.00;100572.63;5024752;28;20045;-79
2022/04/23 04:17:45;;;;;;;21.57;13.33;;;;;;;0.22;100.00;100572.56;4997035;28;20053;-77
2022/04/23 04:20:13;;;;;;;22.07;13.53;;;;;;;0.16;100.00;100575.91;4994481;28;20099;-78
2022/04/23 04:22:41;;;;;;;20.33;12.40;;;;;;;0.19;100.00;100572.50;4996298;28;20064;-79
2022/04/23 04:25:09;;;;;;;21.03;12.47;;;;;;;0.21;100.00;100573.41;5009237;28;20130;-78
2022/04/23 04:27:36;;;;;;;20.53;13.30;;;;;;;0.24;100.00;100573.47;5018896;28;20037;-78
2022/04/23 04:30:05;;;;;;;19.80;12.23;;;;;;;0.23;100.00;100572.59;5019795;28;20053;-79
2022/04/23 04:32:32;;;;;;;21.77;13.70;;;;;;;0.25;100.00;100573.53;5000804;28;20044;-78
2022/04/23 04:34:58;;;;;;;22.63;13.77;;;;;;;0.26;100.00;100577.00;5032369;28;20502;-76
2022/04/23 04:37:25;;;;;;;21.27;13.57;;;;;;;0.30;100.00;100572.72;5015641;28;20466;-77
2022/04/23 04:39:52;;;;;;;22.17;13.13;;;;;;;0.35;100.00;100578.91;5004597;28;20048;-77
2022/04/23 04:42:18;;;;;;;20.10;12.73;;;;;;;0.38;100.00;100579.81;5031494;28;20042;-78
2022/04/23 04:44:45;;;;;;;21.30;12.83;;;;;;;0.38;100.00;100573.75;5027705;28;20041;-77
2022/04/23 04:47:12;;;;;;;22.70;14.27;;;;;;;0.40;100.00;100583.31;5036764;28;20689;-78
2022/04/23 04:49:39;;;;;;;23.50;13.70;;;;;;;0.45;100.00;100581.69;5019518;28;20045;-79
2022/04/23 04:52:06;;;;;;;21.57;14.63;;;;;;;0.50;100.00;100577.44;5012151;28;20418;-78
2022/04/23 04:54:33;;;;;;;24.30;14.03;;;;;;;0.57;100.00;100575.81;5023796;28;20040;-78
2022/04/23 04:57:02;;;;;;;20.33;12.60;;;;;;;0.61;100.00;100580.25;5006348;28;20481;-78
2022/04/23 04:59:33;;;;;;;21.17;13.40;;;;;;;0.71;100.00;100581.28;5015143;28;20513;-79
2022/04/23 05:02:00;;;;;;;20.80;12.57;;;;;;;0.77;100.00;100576.22;4998912;28;20045;-79
2022/04/23 05:04:28;;;;;;;21.20;14.40;;;;;;;0.85;100.00;100572.03;4993465;28;20053;-78
2022/04/23 05:06:54;;;;;;;21.53;15.30;;;;;;;0.84;100.00;100578.03;5004865;28;20400;-82
2022/04/23 05:09:21;;;;;;;26.33;17.73;;;;;;;0.91;100.00;100568.63;5015949;28;20041;-80
2022/04/23 05:11:48;;;;;;;23.07;16.37;;;;;;;1.01;100.00;100574.03;5012073;28;20033;-83
2022/04/23 05:14:16;;;;;;;23.93;15.80;;;;;;;1.04;100.00;100574.06;5013137;28;20041;-81
2022/04/23 05:16:44;;;;;;;21.30;13.27;;;;;;;1.13;100.00;100575.94;5013340;28;20055;-82
2022/04/23 05:19:11;;;;;;;23.07;14.93;;;;;;;1.25;100.00;100570.06;5012340;28;20049;-81
2022/04/23 05:21:37;;;;;;;24.90;14.47;;;;;;;1.35;100.00;100577.19;5011461;28;20513;-82
2022/04/23 05:24:06;;;;;;;24.07;15.07;;;;;;;1.63;100.00;100578.47;4995640;28;20043;-82
2022/04/23 05:26:34;;;;;;;28.43;16.73;;;;;;;2.03;100.00;100571.19;5010466;28;20169;-80
2022/04/23 05:29:01;;;;;;;22.30;14.40;;;;;;;2.19;100.00;100579.22;4992882;28;20045;-81
2022/04/23 05:31:28;;;;;;;23.10;14.50;;;;;;;2.19;100.00;100570.53;5012372;28;20034;-81
2022/04/23 05:33:55;;;;;;;22.57;14.83;;;;;;;2.20;100.00;100572.28;5011353;28;20041;-81
2022/04/23 05:36:22;;;;;;;22.73;14.90;;;;;;;2.32;100.00;100574.13;5029776;28;20042;-80
2022/04/23 05:38:48;;;;;;;20.10;14.03;;;;;;;2.44;100.00;100577.78;5020605;28;20045;-82
2022/04/23 05:41:15;;;;;;;20.73;14.27;;;;;;;2.69;100.00;100578.91;5009989;28;21460;-81
2022/04/23 05:43:42;;;;;;;20.60;13.93;;;;;;;3.17;100.00;100576.72;5005232;28;20037;-81
2022/04/23 05:46:08;;;;;;;21.47;13.77;;;;;;;3.20;100.00;100577.63;4994667;28;20087;-82
2022/04/23 05:48:39;;;;;;;20.30;12.83;;;;;;;3.13;100.00;100588.00;5014158;28;20351;-82
2022/04/23 05:51:06;;;;;;;19.73;12.23;;;;;;;3.07;100.00;100586.19;5011844;28;20046;-82
2022/04/23 05:53:33;;;;;;;21.37;13.77;;;;;;;3.05;100.00;100580.97;4991727;28;20052;-82
2022/04/23 05:55:59;;;;;;;22.83;13.87;;;;;;;3.02;100.00;100586.16;4995584;28;20049;-82
2022/04/23 05:58:26;;;;;;;21.40;14.27;;;;;;;3.16;100.00;100582.78;5018576;28;20312;-81
2022/04/23 06:00:53;;;;;;;22.53;14.60;;;;;;;3.25;100.00;100583.75;5012067;28;20458;-81
2022/04/23 06:03:20;;;;;;;23.50;14.40;;;;;;;3.36;100.00;100581.19;5030606;28;20048;-83
2022/04/23 06:05:47;;;;;;;23.03;14.83;;;;;;;3.48;100.00;100577.81;5018370;28;20139;-83
2022/04/23 06:08:13;;;;;;;25.10;16.47;;;;;;;3.73;100.00;100568.41;5015601;28;20041;-82
2022/04/23 06:10:40;;;;;;;22.40;15.07;;;;;;;3.95;100.00;100572.88;5003681;28;20049;-84
2022/04/23 06:13:08;;;;;;;22.67;14.67;;;;;;;4.21;100.00;100573.88;5009105;28;20041;-82
2022/04/23 06:15:35;;;;;;;21.43;14.63;;;;;;;4.55;100.00;100570.50;5011411;28;20038;-82
2022/04/23 06:18:02;;;;;;;23.03;15.10;;;;;;;4.89;100.00;100574.94;4997011;28;20156;-84
2022/04/23 06:20:29;;;;;;;24.93;15.87;;;;;;;5.08;100.00;100576.69;5027154;28;20052;-81
2022/04/23 06:22:55;;;;;;;27.33;15.90;;;;;;;5.68;100.00;100573.16;4997277;28;20099;-83
2022/04/23 06:25:22;;;;;;;19.13;13.43;;;;;;;7.27;100.00;100574.09;4994997;28;20057;-83
2022/04/23 06:27:50;;;;;;;20.60;13.03;;;;;;;8.75;100.00;100571.59;5003459;28;20058;-84
2022/04/23 06:30:16;;;;;;;17.57;11.93;;;;;;;9.66;92.74;100560.41;4995445;28;20061;-83
2022/04/23 06:32:44;;;;;;;13.73;10.27;;;;;;;10.81;89.84;100566.88;5012761;28;20041;-81
2022/04/23 06:35:11;;;;;;;12.57;10.40;;;;;;;12.03;82.72;100554.09;5004140;28;20041;-83
2022/04/23 06:37:40;;;;;;;14.27;9.93;;;;;;;12.74;72.02;100555.50;5034172;28;20048;-83
2022/04/23 06:40:11;;;;;;;12.20;9.07;;;;;;;13.11;69.96;100559.63;5013778;28;20045;-83
2022/04/23 06:42:38;;;;;;;10.73;9.07;;;;;;;12.87;69.70;100556.88;5013221;28;20499;-82
2022/04/23 06:45:08;;;;;;;14.00;9.35;;;;;;;12.65;67.86;100550.50;4995107;28;20049;-83
2022/04/23 06:47:34;;;;;;;13.02;10.07;;;;;;;12.33;64.75;100557.63;5010940;28;20049;-83
2022/04/23 06:50:01;;;;;;;12.27;10.32;;;;;;;12.39;68.09;100556.56;4988425;28;20049;-83
2022/04/23 06:52:28;;;;;;;11.90;9.57;;;;;;;12.61;67.98;100548.84;5014835;28;20041;-82
2022/04/23 06:54:55;;;;;;;12.85;9.27;;;;;;;12.74;67.70;100550.19;5011871;28;20065;-81
2022/04/23 06:57:23;;;;;;;12.50;10.48;;;;;;;12.84;65.11;100553.44;5005466;28;20446;-82
2022/04/23 06:59:50;;;;;;;11.10;8.95;;;;;;;12.71;66.96;100552.97;4998378;28;20043;-83
2022/04/23 07:02:18;;;;;;;13.02;10.05;;;;;;;12.79;62.93;100545.63;5017157;28;20476;-83
2022/04/23 07:04:45;;;;;;;11.88;8.98;;;;;;;13.02;63.87;100551.97;4988767;28;20042;-84
2022/04/23 07:07:11;;;;;;;10.82;9.40;;;;;;;13.12;62.00;100551.66;4987329;28;20042;-82
2022/04/23 07:09:38;;;;;;;11.57;9.45;;;;;;;13.11;59.95;100543.72;4992595;28;20111;-82
2022/04/23 07:12:05;;;;;;;12.18;9.68;;;;;;;13.15;57.21;100537.41;5009009;28;20033;-81
2022/04/23 07:14:32;;;;;;;12.00;9.45;;;;;;;12.88;58.55;100540.03;5026083;28;20038;-80
2022/04/23 07:17:05;;;;;;;9.70;8.70;;;;;;;13.24;60.38;100550.41;5019135;28;20515;-82
2022/04/23 07:19:32;;;;;;;9.88;8.52;;;;;;;13.35;60.16;100544.72;4995160;28;20041;-81
2022/04/23 07:22:00;;;;;;;9.32;8.05;;;;;;;13.58;59.10;100538.63;5020797;28;20038;-82
2022/04/23 07:24:27;;;;;;;10.75;8.27;;;;;;;13.89;59.78;100544.63;5011391;28;20988;-81
2022/04/23 07:26:53;;;;;;;9.70;8.38;;;;;;;14.14;59.19;100539.28;4995542;28;20088;-81
2022/04/23 07:29:20;;;;;;;11.23;9.07;;;;;;;14.14;54.26;100541.06;5025133;28;20049;-82
2022/04/23 07:31:49;;;;;;;10.93;9.75;;;;;;;13.64;54.84;100530.47;5015431;28;20442;-82
2022/04/23 07:39:46;;;;;;;10.30;9.20;;;;;;;13.93;53.15;100532.06;5028383;28;20064;-81
2022/04/23 07:42:13;;;;;;;9.82;8.07;;;;;;;13.74;53.84;100529.22;5011777;28;20033;-80
2022/04/23 07:44:40;;;;;;;11.48;8.68;;;;;;;14.09;53.82;100534.13;5008215;28;20045;-78
2022/04/23 07:47:07;;;;;;;11.23;9.55;;;;;;;14.28;51.32;100528.97;5018134;28;20051;-80
2022/04/23 07:49:34;;;;;;;11.60;8.48;;;;;;;14.25;51.22;100528.25;5010749;28;20091;-79
2022/04/23 07:52:02;;;;;;;10.73;8.20;;;;;;;14.58;52.47;100523.44;5013383;28;20065;-78
2022/04/23 07:54:28;;;;;;;10.82;8.52;;;;;;;14.66;50.71;100525.81;5006009;28;20033;-81
2022/04/23 07:56:55;;;;;;;9.65;8.30;;;;;;;14.32;51.14;100521.78;5025745;28;20045;-81
2022/04/23 07:59:22;;;;;;;9.02;7.53;;;;;;;14.60;52.19;100524.25;5007013;28;20082;-80
2022/04/23 08:01:49;;;;;;;8.93;7.60;;;;;;;14.69;51.91;100529.19;4994148;28;20033;-82
2022/04/23 08:04:16;;;;;;;8.98;7.63;;;;;;;14.53;49.94;100523.63;5011736;28;20037;-79
2022/04/23 08:06:42;;;;;;;11.60;9.82;;;;;;;14.01;50.72;100524.69;5012958;28;20067;-80
2022/04/23 08:09:09;;;;;;;11.27;8.00;;;;;;;14.29;50.80;100525.41;5015476;28;20045;-81
2022/04/23 08:11:36;;;;;;;8.32;7.53;;;;;;;14.50;49.93;100517.56;4998087;28;20537;-81
2022/04/23 08:14:08;;;;;;;8.95;7.75;;;;;;;14.28;49.19;100522.78;5018714;28;20042;-81
2022/04/23 08:16:35;;;;;;;9.82;7.82;;;;;;;14.35;49.97;100517.19;5041619;22;20033;-79
2022/04/23 08:19:03;;;;;;;9.40;7.85;;;;;;;14.59;51.47;100515.41;5001776;28;20038;-82
2022/04/23 08:21:30;;;;;;;8.18;7.28;;;;;;;14.59;50.96;100515.41;5006282;28;20501;-80
2022/04/23 08:23:56;;;;;;;9.90;8.10;;;;;;;14.76;50.35;100513.88;5010138;28;20046;-81
2022/04/23 08:26:23;;;;;;;9.57;8.20;;;;;;;14.76;49.28;100511.22;5015469;28;20038;-80
2022/04/23 08:31:35;;;;;;;8.57;7.40;;;;;;;14.77;50.63;100512.94;4995737;28;20044;-81
2022/04/23 08:34:02;;;;;;;8.65;7.25;;;;;;;14.81;50.26;100514.56;4970412;28;20042;-82
2022/04/23 08:36:36;;;;;;;8.48;6.90;;;;;;;15.01;50.51;100501.31;5015298;28;20042;-82
2022/04/23 08:39:04;;;;;;;9.45;7.30;;;;;;;15.27;49.01;100502.03;4993008;28;20048;-80
2022/04/23 08:41:31;;;;;;;7.60;6.57;;;;;;;15.10;48.19;100500.94;4996011;28;20038;-82
2022/04/23 08:44:05;;;;;;;11.02;7.65;;;;;;;14.95;48.44;100492.72;5009201;28;20045;-80
2022/04/23 08:46:34;;;;;;;9.73;7.40;;;;;;;15.25;46.97;100495.91;4979842;28;20129;-81
2022/04/23 08:49:13;;;;;;;6.90;6.20;;;;;;;14.91;47.09;100492.84;4993191;28;20076;-81
2022/04/23 08:51:43;;;;;;;7.40;6.57;;;;;;;14.84;47.82;100493.16;4999569;28;20042;-80
2022/04/23 08:54:13;;;;;;;7.25;6.30;;;;;;;15.01;47.42;100496.00;4991532;28;20042;-81
2022/04/23 08:56:42;;;;;;;6.30;5.43;;;;;;;15.50;48.53;100483.28;5003201;28;20073;-81
2022/04/23 08:59:11;;;;;;;8.02;6.00;;;;;;;15.93;45.96;100478.72;4996553;28;20042;-81
2022/04/23 09:01:45;;;;;;;7.38;6.18;;;;;;;16.09;43.81;100485.09;5011929;28;20483;-82
2022/04/23 09:04:12;;;;;;;6.13;5.47;;;;;;;15.82;43.75;100484.56;5013656;28;20045;-81
2022/04/23 09:06:43;;;;;;;7.20;6.43;;;;;;;16.12;45.44;100479.59;5009854;28;20038;-81
2022/04/23 09:09:11;;;;;;;7.85;6.13;;;;;;;16.11;43.86;100477.88;4998980;28;20073;-81
2022/04/23 09:11:40;;;;;;;8.32;6.07;;;;;;;16.17;45.16;100484.75;5013073;28;20046;-80
2022/04/23 09:14:08;;;;;;;7.60;6.32;;;;;;;15.74;42.13;100484.03;4995562;28;20107;-81
2022/04/23 09:25:40;;;;;;;8.05;6.57;;;;;;;16.45;42.35;100470.97;4990381;28;20434;-82
2022/04/23 09:28:17;;;;;;;8.23;7.13;;;;;;;15.56;42.53;100472.38;4987490;28;20038;-83
2022/04/23 09:30:54;;;;;;;8.18;7.35;;;;;;;15.73;45.18;100461.00;4992251;28;20136;-82
2022/04/23 09:33:28;;;;;;;9.18;7.22;;;;;;;16.02;42.46;100460.53;4979879;28;20042;-81
2022/04/23 09:35:59;;;;;;;7.65;6.70;;;;;;;16.64;44.52;100469.13;5004594;28;20066;-83
2022/04/23 09:38:27;;;;;;;7.82;7.07;;;;;;;16.49;44.37;100459.22;4998207;28;20141;-83
2022/04/23 09:40:57;;;;;;;8.57;7.57;;;;;;;17.13;42.32;100450.72;4982456;28;20080;-84
2022/04/23 09:43:29;;;;;;;8.32;7.20;;;;;;;17.40;43.00;100457.34;4995583;28;20084;-83
2022/04/23 09:46:00;;;;;;;9.05;7.20;;;;;;;16.64;43.07;100445.13;5001951;28;20065;-80
2022/04/23 09:48:32;;;;;;;9.27;8.30;;;;;;;15.86;43.80;100451.50;4977027;28;20038;-82
2022/04/23 09:50:59;;;;;;;9.32;8.35;;;;;;;16.18;45.92;100454.47;4986904;28;20038;-82
2022/04/23 09:53:27;;;;;;;8.77;7.50;;;;;;;16.44;44.75;100450.56;4976376;28;20042;-81
2022/04/23 09:55:59;;;;;;;20.17;9.88;;;;;;;17.01;44.48;100446.88;5005469;28;20507;-82
2022/04/23 09:58:29;;;;;;;11.85;8.68;;;;;;;16.78;42.41;100444.50;4992721;28;20046;-81
2022/04/23 10:00:57;;;;;;;9.68;8.45;;;;;;;16.85;42.74;100448.59;4995800;28;20041;-81
2022/04/23 10:03:31;;;;;;;10.88;9.20;;;;;;;17.02;41.16;100450.41;4991071;28;20503;-83
2022/04/23 10:05:59;;;;;;;10.30;8.43;;;;;;;16.71;43.61;100443.94;5010972;28;20049;-80
2022/04/23 10:08:29;;;;;;;10.23;8.15;;;;;;;16.48;42.62;100436.16;5008511;28;20053;-81
2022/04/23 10:11:00;;;;;;;9.27;7.72;;;;;;;16.23;43.77;100434.69;5019101;28;20526;-82
2022/04/23 10:13:29;;;;;;;9.18;8.20;;;;;;;16.93;43.39;100432.19;4992159;28;21621;-82
2022/04/23 10:15:57;;;;;;;10.45;9.07;;;;;;;17.32;41.46;100435.50;5003034;28;20147;-81
2022/04/23 10:18:24;;;;;;;9.82;8.82;;;;;;;17.94;44.40;100425.97;5009863;28;20029;-81
2022/04/23 10:20:55;;;;;;;9.18;7.90;;;;;;;17.92;39.67;100424.34;4993823;28;20046;-81
2022/04/23 10:23:35;;;;;;;12.02;8.43;;;;;;;18.00;39.40;100422.13;4994669;28;20038;-81
2022/04/23 10:26:11;;;;;;;9.18;8.07;;;;;;;18.42;39.47;100432.22;4996438;28;20050;-84
2022/04/23 10:28:43;;;;;;;8.38;7.35;;;;;;;18.02;35.53;100432.72;5024698;28;20042;-79
2022/04/23 10:31:16;;;;;;;7.57;5.80;;;;;;;17.45;37.95;100427.72;5007737;28;20038;-81
2022/04/23 10:33:54;;;;;;;7.32;6.57;;;;;;;17.84;34.70;100422.09;5007087;28;20439;-83
2022/04/23 10:36:22;;;;;;;6.60;5.85;;;;;;;18.50;35.18;100430.00;4994157;28;20046;-83
2022/04/23 10:38:53;;;;;;;6.50;5.85;;;;;;;18.03;36.51;100416.59;5005503;28;20061;-83
2022/04/23 10:41:21;;;;;;;6.63;5.22;;;;;;;17.31;37.26;100406.19;5003542;28;20049;-82
2022/04/23 10:44:03;;;;;;;6.50;5.82;;;;;;;17.38;37.09;100416.47;5006806;28;20053;-82
2022/04/23 10:46:42;;;;;;;6.20;5.60;;;;;;;17.94;36.88;100401.94;4996173;28;20443;-81
2022/04/23 10:49:19;;;;;;;6.20;5.35;;;;;;;17.16;36.08;100407.88;4987902;28;20412;-84
2022/04/23 10:51:51;;;;;;;7.18;5.68;;;;;;;17.39;38.12;100410.19;5008455;28;20117;-83
2022/04/23 10:54:21;;;;;;;8.77;5.60;;;;;;;18.05;37.33;100420.03;5009797;28;20042;-82
2022/04/23 10:56:51;;;;;;;7.35;6.07;;;;;;;17.93;36.13;100404.69;4997818;28;20042;-85
2022/04/23 10:59:38;;;;;;;6.53;5.82;;;;;;;17.46;36.46;100408.06;4992205;28;20066;-81
2022/04/23 11:02:13;;;;;;;7.15;5.95;;;;;;;17.95;36.23;100390.28;4991595;28;20045;-82
2022/04/23 11:13:49;;;;;;;6.93;6.20;;;;;;;18.92;33.84;100369.59;4994359;28;20621;-80
2022/04/23 11:16:17;;;;;;;7.30;6.03;;;;;;;18.29;34.44;100365.19;5006817;28;20372;-81
2022/04/23 11:18:46;;;;;;;6.22;5.50;;;;;;;18.57;36.42;100380.50;4988857;28;20068;-81
2022/04/23 11:21:23;;;;;;;7.18;6.47;;;;;;;18.53;35.15;100373.63;4982513;28;20415;-80
2022/04/23 11:23:51;;;;;;;9.32;7.45;;;;;;;17.86;36.09;100364.06;5011309;28;20125;-82
2022/04/23 11:26:19;;;;;;;7.75;6.93;;;;;;;17.99;35.94;100370.47;4989644;28;20049;-82
2022/04/23 12:03:26;;;;;;;7.28;6.57;;;;;;;18.44;33.88;100328.69;5053286;23;20078;-81
2022/04/23 12:05:57;;;;;;;8.23;5.80;;;;;;;19.02;34.04;100348.50;5021947;28;20048;-81
2022/04/23 12:08:24;;;;;;;8.10;6.80;;;;;;;18.54;34.49;100339.69;5044144;28;20040;-82
2022/04/23 12:10:50;;;;;;;7.55;6.65;;;;;;;18.61;33.09;100330.38;5029520;28;20112;-81
2022/04/23 12:13:18;;;;;;;7.60;6.70;;;;;;;18.47;31.63;100319.59;5026504;28;20041;-81
2022/04/23 12:15:45;;;;;;;7.10;6.40;;;;;;;18.19;35.37;100318.53;5035997;28;20040;-80
2022/04/23 12:18:19;;;;;;;7.10;6.40;;;;;;;17.99;35.36;100308.09;5031372;28;20120;-80
2022/04/23 12:20:46;;;;;;;5.30;4.80;;;;;;;18.48;33.76;100299.91;5028916;28;20044;-81